New Castle Airport
KILG : now visible

Airfield :











YOU CAN JOIN US ON...

 
LOGIN :

Register | Disclaimer

   EN    FR    IT 

 









Legend :    VFR   Marginal VFR   IFR   Intensive IFR   Very Intensive IFR
Visi :
Ceiling :
>= 8 km
>= 3000ft
5 to 8 km
1000 to 3000 ft
1500m to 5 km
500 to 1000 ft
800 to 1500m
200 to 500 ft
< 800m
< 200 ft
Symbols :   Thunderstorms  Fog  Heavy snow  Heavy precipitations  Wind > 20 kt







- Airport Elevation : 80 ft
- IATA code : ILG


KILG - New Castle

CURRENT METAR :
  • 160151Z 19011KT 10SM CLR 23/14 A3001 RMK AO2 SLP160 T02280144

EXPIRED METARs :
  • 160051Z 18011KT 10SM CLR 24/14 A3001 RMK AO2 SLP162 T02390139
  • 152351Z 19008KT 10SM CLR 24/13 A3002 RMK AO2 SLP165 60000 T02440133 10278 20244 55003

TAF KILG
Valid from the 16 at 00:00 until the 17 at 00:00 UTC


152325Z 1600/1624 21009KT P6SM BKN120
FM161300 20008KT P6SM BKN060
FM161700 25010G19KT P6SM VCSH BKN060
FM162000 25013G23KT 6SM -SHRA BKN040
TEMPO 1620/1624 3SM -TSRA BKN020CB
KZDC FIR / North America



MET'MAP, your aeronautical weather chart ! - Copyright ORBIFLY December 2007 - Disclaimer

ORBIFLY MET'MAP TEAM :

Programming & Development : Alexandra Zaïnal
Concept & Development : Baudouin d'Aumeries
Co-Development & Prog : Marc-Olivier Méhu
Technical & hardware support : Manuel Goepfert

Contact : metmap@orbifly.com




SOURCES & CREDITS :

   NOAA       Earth
Advisory